< Typhoon 195401 1954 Season Typhoon 195404 >
Typhoon 195403 (ELSIE)
General InformationTrack Information on Google Maps || Disaster Info.ResourceGoogle EarthGE AnimationAtom FeedGeoJSON
Detalied Best Track (Time Zone = UTC)
Year Month Day Hour Lat. Long. Pressure (hPa) Wind (kt) Class Image Chart
1954 5 5 00 6.5 131.5 1008 0 2 -- Chart
1954 5 5 06 7.1 130.4 1006 0 2 -- Chart
1954 5 5 12 7.1 129.7 1006 0 2 -- Chart
1954 5 5 18 7.1 128.8 1006 0 2 -- Chart
1954 5 6 00 7.5 128.0 1006 0 2 -- Chart
1954 5 6 06 8.0 127.2 1006 0 2 -- Chart
1954 5 6 12 8.5 126.3 1006 0 2 -- Chart
1954 5 6 18 9.0 125.4 1006 0 2 -- Chart
1954 5 7 00 9.4 124.5 1006 0 2 -- Chart
1954 5 7 06 9.6 123.8 1006 0 2 -- Chart
1954 5 7 12 9.8 122.9 1006 0 2 -- Chart
1954 5 7 18 10.0 122.0 1006 0 2 -- Chart
1954 5 8 00 10.3 120.8 1006 0 2 -- Chart
1954 5 8 06 10.6 119.8 1006 0 2 -- Chart
1954 5 8 12 10.9 118.5 1002 0 2 -- Chart
1954 5 8 18 11.1 117.0 1000 0 2 -- Chart
1954 5 9 00 11.6 115.8 950 0 9 -- Chart
1954 5 9 06 12.1 114.8 945 0 9 -- Chart
1954 5 9 12 12.6 113.9 945 0 9 -- Chart
1954 5 9 18 13.0 113.1 950 0 9 -- Chart
1954 5 10 00 13.5 112.3 955 0 9 -- Chart
1954 5 10 06 14.1 111.8 955 0 9 -- Chart
1954 5 10 12 14.8 111.2 955 0 9 -- Chart
1954 5 10 18 15.6 110.7 955 0 9 -- Chart
1954 5 11 00 16.6 110.1 950 0 9 -- Chart
1954 5 11 06 17.5 109.6 950 0 9 -- Chart
1954 5 11 12 18.5 109.1 950 0 9 -- Chart
1954 5 11 18 19.5 108.9 950 0 9 -- Chart
1954 5 12 00 20.6 108.6 960 0 9 -- Chart
1954 5 12 06 21.6 108.0 960 0 9 -- Chart
1954 5 12 12 22.4 107.2 980 0 9 -- Chart
1954 5 12 18 23.0 106.1 990 0 9 -- Chart
Japan Meteorological Agency Best Track Data | Correction Date : 1989-06-01
< Typhoon 195401 1954 Season Typhoon 195404 >

Help